Time;durP1;ratioP1;P1;durP2;ratioP2;P2;SDS_P1;SDS_P2;PMS_P1;PMS_P2;Temp;Humidity;BMP_temperature;BMP_pressure;BME280_temperature;BME280_humidity;BME280_pressure;Samples;Min_cycle;Max_cycle;Signal;HPM_P1;HPM_P2
2021/05/19 00:02:02;;;;;;;16.82;8.93;;;;;;;12.91;100.00;97739.27;1600059;89;20917;-76
2021/05/19 00:04:29;;;;;;;12.85;9.43;;;;;;;12.92;100.00;97741.43;1618968;87;21505;-76
2021/05/19 00:06:57;;;;;;;11.95;9.55;;;;;;;12.89;100.00;97740.22;1599956;89;21009;-76
2021/05/19 00:09:24;;;;;;;12.35;9.50;;;;;;;12.89;100.00;97738.84;1618967;88;21644;-76
2021/05/19 00:11:50;;;;;;;12.75;9.65;;;;;;;12.91;100.00;97739.27;1600069;89;21047;-76
2021/05/19 00:14:18;;;;;;;14.07;10.88;;;;;;;12.92;100.00;97735.34;1619012;88;20995;-76
2021/05/19 00:16:48;;;;;;;12.73;9.83;;;;;;;12.92;100.00;97738.09;1601673;89;21061;-76
2021/05/19 00:19:15;;;;;;;11.65;9.55;;;;;;;12.93;100.00;97741.64;1601287;89;20995;-76
2021/05/19 00:21:42;;;;;;;13.88;10.25;;;;;;;12.94;100.00;97736.34;1601414;89;21065;-76
2021/05/19 00:24:09;;;;;;;12.07;10.03;;;;;;;12.91;100.00;97736.50;1601417;89;21105;-78
2021/05/19 00:26:36;;;;;;;12.45;10.35;;;;;;;12.91;100.00;97735.13;1601055;89;21616;-77
2021/05/19 00:29:08;;;;;;;11.45;9.73;;;;;;;12.91;100.00;97732.38;1601279;89;21004;-77
2021/05/19 00:31:34;;;;;;;12.73;10.38;;;;;;;12.90;100.00;97728.03;1601250;89;21064;-77
2021/05/19 00:34:00;;;;;;;11.08;9.48;;;;;;;12.89;100.00;97728.62;1592947;89;20969;-77
2021/05/19 00:36:27;;;;;;;10.58;9.48;;;;;;;12.89;100.00;97732.75;1575165;91;21603;-77
2021/05/19 00:38:56;;;;;;;14.63;10.20;;;;;;;12.89;100.00;97731.95;1601254;89;20980;-76
2021/05/19 00:41:22;;;;;;;11.95;10.00;;;;;;;12.90;100.00;97730.78;1601406;89;20930;-86
2021/05/19 00:43:49;;;;;;;12.90;10.40;;;;;;;12.90;100.00;97728.03;1601339;89;20952;-86
2021/05/19 00:46:16;;;;;;;12.88;10.43;;;;;;;12.90;100.00;97724.70;1565812;91;21073;-86
2021/05/19 00:48:43;;;;;;;10.30;9.15;;;;;;;12.92;100.00;97722.16;1564410;91;21167;-85
2021/05/19 00:51:10;;;;;;;14.03;9.15;;;;;;;12.91;100.00;97721.36;1601319;88;21039;-82
2021/05/19 00:53:39;;;;;;;14.83;9.33;;;;;;;12.91;100.00;97722.73;1601378;89;20937;-81
2021/05/19 00:56:06;;;;;;;9.85;8.85;;;;;;;12.92;100.00;97723.53;1601475;89;21053;-82
2021/05/19 00:58:33;;;;;;;11.15;9.18;;;;;;;12.90;100.00;97723.32;1601588;89;20953;-78
2021/05/19 01:01:00;;;;;;;10.95;8.88;;;;;;;12.89;100.00;97716.81;1591253;88;21748;-79
2021/05/19 01:03:31;;;;;;;10.78;9.63;;;;;;;12.89;100.00;97725.07;1593648;89;20934;-79
2021/05/19 01:06:02;;;;;;;11.28;9.03;;;;;;;12.89;100.00;97722.31;1585700;90;21042;-79
2021/05/19 01:11:16;;;;;;;12.43;9.85;;;;;;;12.85;100.00;97720.90;1588200;90;21619;-79
2021/05/19 01:13:45;;;;;;;11.15;9.93;;;;;;;12.83;100.00;97723.81;1588396;90;21623;-80
2021/05/19 01:16:12;;;;;;;10.63;9.08;;;;;;;12.82;100.00;97730.48;1588151;90;21614;-79
2021/05/19 01:18:42;;;;;;;14.65;9.83;;;;;;;12.82;100.00;97726.36;1588367;90;20939;-82
2021/05/19 01:21:09;;;;;;;9.38;8.45;;;;;;;12.83;100.00;97727.95;1588269;90;21833;-82
2021/05/19 01:23:38;;;;;;;13.45;9.65;;;;;;;12.85;100.00;97725.03;1588224;90;21049;-82
2021/05/19 01:26:08;;;;;;;11.85;9.20;;;;;;;12.85;100.00;97725.61;1563486;90;21824;-80
2021/05/19 01:28:35;;;;;;;12.43;9.23;;;;;;;12.85;100.00;97720.10;1588154;90;21626;-82
2021/05/19 01:31:04;;;;;;;10.00;8.53;;;;;;;12.84;100.00;97715.18;1588063;90;20982;-82
2021/05/19 01:33:32;;;;;;;10.15;9.05;;;;;;;12.86;100.00;97718.35;1588006;90;20958;-82
2021/05/19 01:35:59;;;;;;;17.52;9.35;;;;;;;12.85;100.00;97722.27;1588133;90;20946;-82
2021/05/19 01:38:26;;;;;;;12.58;9.35;;;;;;;12.83;100.00;97720.48;1588064;90;21804;-83
2021/05/19 01:40:53;;;;;;;11.38;9.40;;;;;;;12.81;100.00;97718.68;1588088;90;20962;-91
2021/05/19 01:43:30;;;;;;;9.43;8.33;;;;;;;12.80;100.00;97718.47;1588085;89;20950;-90
2021/05/19 01:46:15;;;;;;;9.78;8.73;;;;;;;12.79;100.00;97723.77;1588119;90;21028;-89
2021/05/19 01:48:41;;;;;;;10.63;9.13;;;;;;;12.76;100.00;97724.52;1588239;90;20940;-89
2021/05/19 01:51:08;;;;;;;10.80;9.08;;;;;;;12.74;100.00;97724.09;1588192;90;21979;-85
2021/05/19 01:53:34;;;;;;;13.00;10.53;;;;;;;12.73;100.00;97728.60;1588191;90;21008;-85
2021/05/19 01:56:01;;;;;;;11.28;10.00;;;;;;;12.69;100.00;97736.05;1588136;90;20961;-81
2021/05/19 01:58:29;;;;;;;11.18;9.85;;;;;;;12.67;100.00;97735.05;1587946;89;20977;-82
2021/05/19 02:00:56;;;;;;;12.78;9.48;;;;;;;12.67;100.00;97726.79;1588193;90;21028;-82
2021/05/19 02:03:26;;;;;;;11.80;9.93;;;;;;;12.68;100.00;97730.33;1587744;90;21555;-82
2021/05/19 02:05:54;;;;;;;16.70;9.10;;;;;;;12.70;100.00;97728.00;1584609;90;21032;-81
2021/05/19 02:08:23;;;;;;;12.50;9.38;;;;;;;12.71;100.00;97728.21;1588275;89;21526;-82
2021/05/19 02:10:49;;;;;;;11.30;8.90;;;;;;;12.71;100.00;97725.45;1563397;90;21554;-79
2021/05/19 02:13:19;;;;;;;12.25;9.48;;;;;;;12.69;100.00;97725.83;1588218;90;21032;-82
2021/05/19 02:15:47;;;;;;;10.48;8.83;;;;;;;12.67;100.00;97729.54;1588115;90;21007;-81
2021/05/19 02:18:15;;;;;;;13.35;9.05;;;;;;;12.65;100.00;97727.74;1588224;90;21044;-81
2021/05/19 02:20:42;;;;;;;14.58;9.45;;;;;;;12.65;100.00;97731.08;1588164;90;21048;-80
2021/05/19 02:23:08;;;;;;;11.60;9.58;;;;;;;12.65;100.00;97726.95;1588202;90;21047;-80
2021/05/19 02:25:36;;;;;;;11.00;9.58;;;;;;;12.66;100.00;97727.16;1588208;90;20972;-81
2021/05/19 02:28:03;;;;;;;14.33;10.30;;;;;;;12.66;100.00;97725.20;1588108;90;21558;-80
2021/05/19 02:30:32;;;;;;;10.88;8.48;;;;;;;12.66;100.00;97732.66;1587215;90;20983;-80
2021/05/19 02:32:59;;;;;;;15.50;9.10;;;;;;;12.66;100.00;97738.17;1588059;90;21025;-80
2021/05/19 02:35:26;;;;;;;12.45;9.80;;;;;;;12.65;100.00;97748.97;1577134;89;21084;-80
2021/05/19 02:37:54;;;;;;;14.10;8.83;;;;;;;12.64;100.00;97746.01;1575601;91;21017;-80
2021/05/19 02:40:21;;;;;;;13.85;9.50;;;;;;;12.63;100.00;97742.46;1575108;91;21136;-80
2021/05/19 02:42:48;;;;;;;14.58;11.10;;;;;;;12.63;100.00;97741.67;1612103;88;20983;-80
2021/05/19 02:45:17;;;;;;;16.35;9.85;;;;;;;12.64;100.00;97748.18;1600978;88;21041;-78
2021/05/19 02:47:43;;;;;;;11.08;9.83;;;;;;;12.67;100.00;97752.14;1637772;87;20984;-78
2021/05/19 02:50:12;;;;;;;13.55;11.03;;;;;;;12.69;100.00;97755.32;1640885;87;21532;-78
2021/05/19 02:52:38;;;;;;;13.13;10.75;;;;;;;12.70;100.00;97752.78;1621988;87;21093;-78
2021/05/19 02:55:08;;;;;;;14.07;11.35;;;;;;;12.71;100.00;97757.12;1640633;87;21529;-79
2021/05/19 02:57:34;;;;;;;16.02;11.03;;;;;;;12.72;100.00;97747.08;1640699;87;20983;-79
2021/05/19 03:00:00;;;;;;;15.72;12.05;;;;;;;12.75;100.00;97752.42;1647445;87;20987;-80
2021/05/19 03:02:27;;;;;;;13.90;11.85;;;;;;;12.78;100.00;97750.30;1647366;86;21573;-78
2021/05/19 03:04:54;;;;;;;15.15;11.22;;;;;;;12.82;100.00;97758.82;1647361;87;21504;-84
2021/05/19 03:07:20;;;;;;;13.72;11.73;;;;;;;12.85;100.00;97755.90;1647319;87;20943;-83
2021/05/19 03:09:47;;;;;;;15.03;13.13;;;;;;;12.89;100.00;97765.80;1647630;86;20958;-80
2021/05/19 03:12:13;;;;;;;17.77;13.03;;;;;;;12.90;100.00;97758.33;1647318;86;21049;-80
2021/05/19 03:14:42;;;;;;;17.67;13.38;;;;;;;12.92;100.00;97763.47;1647450;87;20951;-81
2021/05/19 03:17:09;;;;;;;16.70;13.53;;;;;;;12.94;100.00;97763.30;1647277;87;21884;-82
2021/05/19 03:19:35;;;;;;;17.30;13.30;;;;;;;12.99;100.00;97766.31;1647514;87;20954;-86
2021/05/19 03:22:03;;;;;;;18.00;13.18;;;;;;;13.05;100.00;97770.32;1647625;87;20967;-87
2021/05/19 03:24:29;;;;;;;18.05;12.80;;;;;;;13.10;100.00;97771.36;1649503;85;20963;-86
2021/05/19 03:26:55;;;;;;;18.55;13.10;;;;;;;13.12;100.00;97775.33;1649624;86;20991;-79
2021/05/19 03:29:22;;;;;;;14.75;12.33;;;;;;;13.14;100.00;97773.00;1650806;87;21393;-85
2021/05/19 03:31:48;;;;;;;17.15;13.80;;;;;;;13.18;100.00;97782.13;1650634;85;20931;-87
2021/05/19 03:34:15;;;;;;;18.57;13.25;;;;;;;13.20;100.00;97779.80;1651326;86;21018;-85
2021/05/19 03:36:42;;;;;;;18.65;13.88;;;;;;;13.26;100.00;97786.34;1651214;86;20903;-84
2021/05/19 03:39:09;;;;;;;16.45;13.58;;;;;;;13.29;100.00;97784.98;1650618;85;20915;-83
2021/05/19 03:41:37;;;;;;;16.27;13.75;;;;;;;13.34;100.00;97785.23;1647190;87;21039;-80
2021/05/19 03:44:05;;;;;;;14.98;12.65;;;;;;;13.37;100.00;97784.48;1647263;86;21596;-81
2021/05/19 03:46:32;;;;;;;18.42;13.80;;;;;;;13.38;100.00;97790.20;1650464;85;21452;-81
2021/05/19 03:49:00;;;;;;;18.67;14.18;;;;;;;13.36;100.00;97787.03;1648552;85;20971;-81
2021/05/19 03:51:28;;;;;;;18.57;14.03;;;;;;;13.34;100.00;97787.98;1648934;85;20990;-81
2021/05/19 03:53:54;;;;;;;16.32;13.60;;;;;;;13.33;100.00;97787.78;1647356;87;21731;-80
2021/05/19 03:56:20;;;;;;;16.85;14.18;;;;;;;13.32;100.00;97791.13;1647247;86;20927;-81
2021/05/19 03:58:47;;;;;;;15.50;13.40;;;;;;;13.33;100.00;97787.78;1647419;86;20983;-81
2021/05/19 04:01:14;;;;;;;19.48;14.40;;;;;;;13.34;100.00;97790.75;1647312;87;21577;-81
2021/05/19 04:03:41;;;;;;;16.32;12.78;;;;;;;13.37;100.00;97794.92;1647283;87;20942;-82
2021/05/19 04:06:07;;;;;;;16.87;12.75;;;;;;;13.40;100.00;97794.75;1647367;87;21613;-81
2021/05/19 04:08:36;;;;;;;15.28;11.75;;;;;;;13.42;100.00;97800.69;1647150;86;21006;-82
2021/05/19 04:11:03;;;;;;;12.88;11.38;;;;;;;13.42;100.00;97795.97;1626567;87;20954;-86
2021/05/19 04:13:29;;;;;;;16.52;13.30;;;;;;;13.42;100.00;97802.86;1647322;86;20946;-82
2021/05/19 04:15:56;;;;;;;13.78;11.33;;;;;;;13.39;100.00;97801.44;1647726;87;20998;-79
2021/05/19 04:18:22;;;;;;;13.55;11.25;;;;;;;13.38;100.00;97807.53;1650615;87;21037;-76
2021/05/19 04:20:49;;;;;;;14.90;12.30;;;;;;;13.40;100.00;97808.53;1648368;86;20959;-76
2021/05/19 04:23:16;;;;;;;13.18;11.50;;;;;;;13.40;100.00;97806.57;1647200;87;21034;-76
2021/05/19 04:25:42;;;;;;;13.03;11.18;;;;;;;13.41;100.00;97805.41;1647244;87;20944;-75
2021/05/19 04:28:09;;;;;;;15.32;11.43;;;;;;;13.44;100.00;97807.99;1647461;87;21014;-75
2021/05/19 04:30:36;;;;;;;14.05;10.85;;;;;;;13.47;100.00;97808.62;1645596;86;21023;-76
2021/05/19 04:33:03;;;;;;;12.95;11.40;;;;;;;13.51;100.00;97810.25;1644198;85;20955;-76
2021/05/19 04:35:32;;;;;;;14.15;11.80;;;;;;;13.53;100.00;97812.63;1644406;85;20968;-75
2021/05/19 04:37:59;;;;;;;17.10;12.15;;;;;;;13.55;100.00;97814.42;1644658;87;21043;-75
2021/05/19 04:40:26;;;;;;;14.53;11.40;;;;;;;13.57;100.00;97811.28;1644428;87;21039;-73
2021/05/19 04:42:52;;;;;;;13.58;10.55;;;;;;;13.58;100.00;97812.28;1640410;87;21000;-76
2021/05/19 04:45:19;;;;;;;13.48;11.33;;;;;;;13.62;100.00;97806.23;1634461;87;21543;-76
2021/05/19 04:47:45;;;;;;;14.38;10.95;;;;;;;13.67;100.00;97814.75;1638873;87;21603;-75
2021/05/19 04:50:13;;;;;;;13.15;11.12;;;;;;;13.72;100.00;97810.27;1639403;87;21039;-74
2021/05/19 04:52:39;;;;;;;14.38;11.15;;;;;;;13.77;100.00;97807.17;1639550;86;21005;-73
2021/05/19 04:55:08;;;;;;;19.62;10.72;;;;;;;13.79;100.00;97808.97;1612937;87;21845;-74
2021/05/19 04:57:35;;;;;;;15.32;11.68;;;;;;;13.85;100.00;97815.73;1639528;87;21029;-74
2021/05/19 05:00:04;;;;;;;17.00;10.70;;;;;;;13.91;100.00;97816.14;1632952;86;21014;-74
2021/05/19 05:02:31;;;;;;;12.70;10.25;;;;;;;13.98;100.00;97813.45;1627645;87;21028;-74
2021/05/19 05:04:57;;;;;;;13.55;10.98;;;;;;;14.01;100.00;97809.94;1639553;87;21123;-75
2021/05/19 05:07:26;;;;;;;14.45;9.28;;;;;;;14.07;100.00;97808.42;1639371;87;21168;-75
2021/05/19 05:09:55;;;;;;;12.25;8.95;;;;;;;14.12;100.00;97810.83;1639531;87;20997;-74
2021/05/19 05:12:21;;;;;;;16.42;10.63;;;;;;;14.15;100.00;97815.00;1639970;87;20917;-71
2021/05/19 05:14:49;;;;;;;11.35;8.78;;;;;;;14.21;100.00;97822.34;1639653;87;21040;-72
2021/05/19 05:17:16;;;;;;;14.00;9.55;;;;;;;14.27;100.00;97820.03;1639781;87;21028;-75
2021/05/19 05:19:43;;;;;;;10.28;8.28;;;;;;;14.29;100.00;97814.92;1608962;89;20970;-73
2021/05/19 05:22:11;;;;;;;10.60;8.55;;;;;;;14.32;100.00;97814.95;1608764;89;20936;-75
2021/05/19 05:24:37;;;;;;;12.88;8.70;;;;;;;14.35;100.00;97809.25;1608948;89;21052;-76
2021/05/19 05:27:05;;;;;;;12.13;8.85;;;;;;;14.39;100.00;97815.00;1586992;89;21699;-77
2021/05/19 05:29:32;;;;;;;14.18;8.85;;;;;;;14.43;100.00;97808.95;1608966;87;20932;-74
2021/05/19 05:31:59;;;;;;;9.25;7.78;;;;;;;14.50;100.00;97809.56;1608301;89;21815;-80
2021/05/19 05:34:25;;;;;;;12.65;8.48;;;;;;;14.54;100.00;97813.14;1608743;89;21044;-84
2021/05/19 05:36:52;;;;;;;11.15;8.50;;;;;;;14.60;100.00;97812.99;1608836;89;20949;-81
2021/05/19 05:39:19;;;;;;;11.05;7.58;;;;;;;14.69;100.00;97812.66;1608707;89;21597;-80
2021/05/19 05:41:45;;;;;;;10.38;8.65;;;;;;;14.78;100.00;97817.26;1592184;90;21118;-77
2021/05/19 05:44:12;;;;;;;10.88;8.28;;;;;;;14.88;100.00;97826.20;1608713;87;21048;-85
2021/05/19 05:46:38;;;;;;;9.80;8.25;;;;;;;14.94;100.00;97819.13;1608759;89;21001;-70
2021/05/19 05:49:06;;;;;;;16.90;7.83;;;;;;;15.05;100.00;97817.78;1592030;90;20996;-74
2021/05/19 05:51:33;;;;;;;10.48;8.30;;;;;;;15.16;100.00;97823.56;1592187;88;21043;-72
2021/05/19 05:53:59;;;;;;;11.43;8.28;;;;;;;15.23;100.00;97831.10;1592103;90;20975;-80
2021/05/19 05:56:26;;;;;;;9.00;7.37;;;;;;;15.28;100.00;97834.09;1592133;90;21467;-76
2021/05/19 05:58:52;;;;;;;9.85;7.75;;;;;;;15.35;100.00;97828.59;1592078;90;21538;-75
2021/05/19 06:01:18;;;;;;;11.65;8.20;;;;;;;15.41;100.00;97827.03;1592213;90;20988;-74
2021/05/19 06:03:45;;;;;;;10.50;7.97;;;;;;;15.45;100.00;97827.84;1592072;90;21008;-78
2021/05/19 06:06:11;;;;;;;9.50;7.78;;;;;;;15.49;100.00;97825.30;1592239;90;21630;-75
2021/05/19 06:08:37;;;;;;;7.70;6.55;;;;;;;15.52;98.51;97823.13;1608857;89;21071;-77
2021/05/19 06:11:07;;;;;;;8.83;7.08;;;;;;;15.58;97.62;97820.81;1608664;89;21973;-84
2021/05/19 06:13:32;;;;;;;18.32;7.67;;;;;;;15.66;97.24;97826.53;1608681;88;20985;-86
2021/05/19 06:15:58;;;;;;;11.35;6.78;;;;;;;15.76;96.58;97825.77;1592205;90;21041;-80
2021/05/19 06:18:25;;;;;;;11.12;6.80;;;;;;;15.83;95.25;97825.80;1608839;89;21020;-88
2021/05/19 06:20:52;;;;;;;9.50;6.20;;;;;;;15.91;94.26;97821.06;1608794;88;21080;-77
2021/05/19 06:23:18;;;;;;;12.25;6.58;;;;;;;15.99;93.95;97821.28;1591902;90;21623;-76
2021/05/19 06:25:45;;;;;;;17.42;6.30;;;;;;;16.09;93.13;97829.40;1608651;89;20996;-86
2021/05/19 06:28:11;;;;;;;21.27;6.80;;;;;;;16.14;91.48;97830.39;1608248;88;21035;-81
2021/05/19 06:30:37;;;;;;;15.58;7.03;;;;;;;16.16;91.56;97834.95;1590824;90;21516;-77
2021/05/19 06:33:05;;;;;;;6.12;4.53;;;;;;;16.21;91.01;97834.52;1608732;89;21870;-75
2021/05/19 06:35:32;;;;;;;4.97;3.77;;;;;;;16.23;89.88;97840.46;1608678;89;20900;-77
2021/05/19 06:37:59;;;;;;;3.60;3.25;;;;;;;16.27;89.11;97839.08;1590515;90;21671;-76
2021/05/19 06:40:27;;;;;;;6.33;3.37;;;;;;;16.29;87.77;97843.04;1589955;90;21152;-76
2021/05/19 06:42:53;;;;;;;4.17;2.72;;;;;;;16.36;87.52;97843.64;1590581;90;21188;-76
2021/05/19 06:45:20;;;;;;;4.28;3.40;;;;;;;16.45;87.24;97846.21;1587195;90;21114;-75
2021/05/19 06:47:46;;;;;;;5.12;3.75;;;;;;;16.56;85.54;97849.58;1586804;89;21084;-77
2021/05/19 06:50:13;;;;;;;5.53;3.87;;;;;;;16.60;85.12;97854.52;1587651;90;21032;-76
2021/05/19 06:52:40;;;;;;;24.95;6.97;;;;;;;16.63;85.06;97858.68;1587600;89;21079;-77
2021/05/19 06:55:07;;;;;;;40.05;6.87;;;;;;;16.69;85.29;97861.88;1587976;90;21562;-77
2021/05/19 06:57:36;;;;;;;15.93;5.45;;;;;;;16.67;84.14;97855.94;1583505;90;21432;-76
2021/05/19 07:00:07;;;;;;;11.45;6.30;;;;;;;16.67;84.90;97855.94;1588145;90;21093;-77
2021/05/19 07:02:34;;;;;;;7.90;5.50;;;;;;;16.68;84.17;97859.70;1588269;90;21026;-74
2021/05/19 07:05:00;;;;;;;10.50;6.37;;;;;;;16.68;84.94;97863.06;1587951;90;20998;-74
2021/05/19 07:07:28;;;;;;;10.20;6.10;;;;;;;16.69;85.23;97861.88;1588118;90;20998;-78
2021/05/19 07:09:54;;;;;;;5.42;4.83;;;;;;;16.72;86.62;97856.92;1588171;90;21125;-79
2021/05/19 07:12:21;;;;;;;8.83;6.45;;;;;;;16.78;86.31;97863.62;1588045;90;21055;-81
2021/05/19 07:14:59;;;;;;;9.08;5.45;;;;;;;16.76;83.89;97866.00;1587906;90;20955;-80
2021/05/19 07:17:22;;;;;;;7.78;4.75;;;;;;;16.69;84.27;97868.80;1562459;91;21030;-81
2021/05/19 07:19:48;;;;;;;9.23;8.23;;;;;;;16.62;82.92;97863.23;1584629;90;21006;-78
2021/05/19 07:22:15;;;;;;;9.35;7.65;;;;;;;16.57;82.84;97860.86;1587914;90;21686;-80
2021/05/19 07:24:43;;;;;;;7.62;5.65;;;;;;;16.64;83.07;97871.94;1588116;90;21026;-83
2021/05/19 07:27:10;;;;;;;5.50;4.90;;;;;;;16.74;82.15;97871.96;1588084;90;21627;-80
2021/05/19 07:29:36;;;;;;;7.22;6.30;;;;;;;16.82;81.53;97872.72;1588088;90;21010;-81
2021/05/19 07:32:05;;;;;;;8.15;5.92;;;;;;;16.89;80.86;97875.48;1587673;90;21688;-90
2021/05/19 07:34:32;;;;;;;5.50;4.80;;;;;;;16.94;79.88;97877.06;1587439;88;21177;-79
2021/05/19 07:37:00;;;;;;;6.30;4.25;;;;;;;16.91;79.36;97878.66;1588030;89;21045;-81
2021/05/19 07:39:28;;;;;;;5.53;4.83;;;;;;;16.89;80.52;97881.03;1588160;90;21032;-84
2021/05/19 07:41:54;;;;;;;8.90;4.03;;;;;;;16.90;80.26;97885.38;1587976;90;21060;-83
2021/05/19 07:44:21;;;;;;;6.70;4.67;;;;;;;16.92;80.57;97878.84;1588051;89;20977;-81
2021/05/19 07:46:47;;;;;;;9.23;4.08;;;;;;;16.92;80.47;97883.00;1587996;90;21139;-81
2021/05/19 07:49:14;;;;;;;4.03;3.58;;;;;;;16.99;80.71;97884.38;1587884;90;21561;-80
2021/05/19 07:51:43;;;;;;;7.60;4.10;;;;;;;17.05;80.11;97882.80;1587991;90;21019;-79
2021/05/19 07:54:13;;;;;;;6.22;4.08;;;;;;;17.12;80.28;97887.53;1587880;90;21012;-78
2021/05/19 07:57:25;;;;;;;14.00;5.78;;;;;;;17.14;78.81;97887.92;1587318;90;21658;-78
2021/05/19 07:59:11;;;;;;;10.00;4.75;;;;;;;17.11;78.86;97894.27;1580182;90;21204;-79
2021/05/19 08:04:07;;;;;;;6.22;4.92;;;;;;;17.10;79.37;97894.86;1587456;90;20982;-85
2021/05/19 08:06:35;;;;;;;9.15;4.65;;;;;;;17.08;78.71;97897.24;1587107;90;21137;-85
2021/05/19 08:09:04;;;;;;;8.60;4.00;;;;;;;17.08;78.85;97897.24;1587759;90;21026;-87
2021/05/19 08:11:32;;;;;;;5.58;4.50;;;;;;;17.04;79.39;97897.05;1587699;90;21914;-85
2021/05/19 08:13:59;;;;;;;7.33;4.65;;;;;;;16.96;79.29;97899.04;1587890;90;21564;-83
2021/05/19 08:16:25;;;;;;;4.70;4.08;;;;;;;16.86;79.54;97901.22;1587659;90;21042;-83
2021/05/19 08:18:55;;;;;;;7.15;4.00;;;;;;;16.83;80.39;97905.58;1587856;90;21108;-83
2021/05/19 08:21:20;;;;;;;4.47;4.08;;;;;;;16.81;80.33;97909.94;1587773;90;20965;-84
2021/05/19 08:23:47;;;;;;;6.83;4.70;;;;;;;16.77;80.89;97918.25;1587564;90;21106;-83
2021/05/19 08:26:13;;;;;;;7.35;4.42;;;;;;;16.77;81.18;97903.59;1587216;90;20985;-83
2021/05/19 08:28:40;;;;;;;51.77;12.73;;;;;;;16.75;80.46;97911.55;1587578;90;20986;-86
2021/05/19 08:31:08;;;;;;;68.20;15.55;;;;;;;16.71;80.75;97920.45;1587089;90;21109;-84
2021/05/19 08:33:35;;;;;;;44.13;11.73;;;;;;;16.66;81.79;97923.02;1587502;90;21138;-84
2021/05/19 08:36:01;;;;;;;11.53;5.60;;;;;;;16.65;82.62;97923.42;1587692;90;21019;-86
2021/05/19 08:38:28;;;;;;;8.10;5.00;;;;;;;16.65;83.64;97922.03;1586985;90;21077;-84
2021/05/19 08:40:54;;;;;;;9.68;4.75;;;;;;;16.65;84.00;97926.19;1587839;90;21258;-85
2021/05/19 08:43:22;;;;;;;266.60;53.00;;;;;;;16.65;84.53;97922.03;1588204;89;21613;-85
2021/05/19 08:45:50;;;;;;;26.85;10.48;;;;;;;16.68;84.69;97922.63;1590786;89;21093;-85
2021/05/19 08:48:17;;;;;;;11.43;6.28;;;;;;;16.66;84.83;97933.31;1589402;90;21954;-84
2021/05/19 08:50:44;;;;;;;10.65;5.33;;;;;;;16.65;85.37;97932.52;1586595;89;21102;-86
2021/05/19 08:53:11;;;;;;;9.48;5.30;;;;;;;16.67;85.23;97933.52;1589582;89;21034;-89
2021/05/19 08:55:39;;;;;;;11.73;4.87;;;;;;;16.66;85.32;97934.70;1590266;89;20994;-85
2021/05/19 08:58:05;;;;;;;8.58;5.55;;;;;;;16.69;85.53;97929.16;1590882;89;21029;-85
2021/05/19 09:00:34;;;;;;;5.40;4.37;;;;;;;16.73;85.98;97933.31;1590063;90;21983;-84
2021/05/19 09:03:13;;;;;;;5.45;3.65;;;;;;;16.83;86.05;97933.30;1587662;89;20982;-78
2021/05/19 09:05:48;;;;;;;5.58;3.25;;;;;;;16.87;83.32;97938.84;1589910;90;20966;-84
2021/05/19 09:08:17;;;;;;;7.20;4.05;;;;;;;16.81;81.61;97941.21;1590734;89;20983;-82
2021/05/19 09:10:46;;;;;;;7.22;3.20;;;;;;;16.81;82.54;97942.59;1590319;90;21512;-84
2021/05/19 09:13:46;;;;;;;7.42;3.22;;;;;;;16.80;81.89;97938.83;1589206;90;21714;-87
2021/05/19 09:16:10;;;;;;;8.25;4.15;;;;;;;16.78;80.33;97942.59;1590727;90;21647;-83
2021/05/19 09:18:52;;;;;;;9.10;4.47;;;;;;;16.72;80.26;97950.53;1590843;90;21089;-84
2021/05/19 09:21:42;;;;;;;4.25;2.95;;;;;;;16.73;80.36;97945.78;1591163;90;20938;-87
2021/05/19 09:24:21;;;;;;;4.62;3.20;;;;;;;16.74;81.09;97943.22;1591186;90;21050;-81
2021/05/19 09:26:56;;;;;;;4.25;2.02;;;;;;;16.73;80.81;97943.80;1588347;90;21160;-81
2021/05/19 09:29:26;;;;;;;2.67;2.30;;;;;;;16.73;79.46;97948.55;1590351;90;21041;-80
2021/05/19 09:32:07;;;;;;;2.55;2.20;;;;;;;16.77;79.11;97945.95;1590326;90;20970;-81
2021/05/19 09:34:39;;;;;;;3.83;2.80;;;;;;;16.83;78.56;97952.69;1590406;89;20997;-81
2021/05/19 09:37:26;;;;;;;2.77;2.42;;;;;;;16.84;78.76;97950.12;1589341;89;21651;-80
2021/05/19 09:40:01;;;;;;;7.30;3.60;;;;;;;16.91;79.67;97945.17;1589333;90;22012;-81
2021/05/19 09:42:46;;;;;;;9.70;4.50;;;;;;;17.02;80.33;97952.09;1589546;90;21021;-81
2021/05/19 09:45:30;;;;;;;6.03;3.52;;;;;;;17.12;80.17;97956.25;1566819;91;21135;-81
2021/05/19 09:47:57;;;;;;;5.08;3.47;;;;;;;17.25;79.67;97955.84;1577488;91;21554;-80
2021/05/19 09:50:43;;;;;;;4.97;3.12;;;;;;;17.37;79.01;97960.95;1578692;89;21040;-81
2021/05/19 09:53:18;;;;;;;3.05;2.67;;;;;;;17.47;78.59;97965.09;1567208;91;22472;-80
2021/05/19 09:55:56;;;;;;;3.85;2.62;;;;;;;17.55;77.89;97972.80;1578441;91;21104;-80
2021/05/19 09:58:32;;;;;;;6.97;3.35;;;;;;;17.55;77.29;97977.56;1578494;91;21492;-80
2021/05/19 10:00:58;;;;;;;3.10;2.40;;;;;;;17.48;78.43;97972.81;1578518;90;21557;-80
2021/05/19 10:03:25;;;;;;;5.90;2.72;;;;;;;17.37;76.73;97978.98;1578830;91;21095;-80
2021/05/19 10:06:02;;;;;;;4.65;3.15;;;;;;;17.18;77.30;97982.19;1578809;89;21836;-80
2021/05/19 10:08:20;;;;;;;3.77;3.08;;;;;;;16.95;79.40;97978.43;1577711;90;21602;-81
2021/05/19 10:10:46;;;;;;;4.85;3.40;;;;;;;16.72;81.15;97994.08;1578860;91;21008;-81
2021/05/19 10:13:14;;;;;;;7.50;3.72;;;;;;;16.47;82.66;98003.69;1578668;91;21052;-82
2021/05/19 10:15:40;;;;;;;10.20;3.75;;;;;;;16.26;84.30;98005.80;1578818;91;20981;-82
2021/05/19 10:18:10;;;;;;;11.68;3.62;;;;;;;16.07;85.68;98012.48;1578735;91;21504;-81
2021/05/19 10:20:42;;;;;;;9.85;2.85;;;;;;;15.91;86.71;98012.00;1578523;90;21012;-82
2021/05/19 10:23:09;;;;;;;4.40;2.27;;;;;;;15.71;87.63;98016.23;1578457;91;21048;-82
2021/05/19 10:25:39;;;;;;;3.30;1.75;;;;;;;15.48;88.09;98021.43;1577369;90;21108;-83
2021/05/19 10:28:09;;;;;;;3.37;1.95;;;;;;;15.25;89.00;98018.09;1578808;91;21551;-83
2021/05/19 10:30:46;;;;;;;3.75;1.72;;;;;;;15.06;90.28;98020.52;1578739;90;21079;-83
2021/05/19 10:33:39;;;;;;;3.15;2.20;;;;;;;14.98;91.56;98022.24;1578324;91;21055;-82
2021/05/19 10:36:37;;;;;;;5.40;2.35;;;;;;;14.94;92.70;98024.18;1570725;90;21646;-82
2021/05/19 10:39:18;;;;;;;4.10;2.47;;;;;;;14.98;93.79;98024.42;1591407;90;21045;-82
2021/05/19 10:41:48;;;;;;;3.17;2.08;;;;;;;15.06;95.09;98021.10;1594221;90;21024;-83
2021/05/19 10:44:22;;;;;;;5.40;1.65;;;;;;;15.15;95.46;98020.98;1597278;88;21082;-82
2021/05/19 10:47:01;;;;;;;2.92;1.67;;;;;;;15.17;94.95;98008.95;1618346;87;21646;-82
2021/05/19 10:50:11;;;;;;;1.87;1.55;;;;;;;15.19;94.71;98005.81;1618230;88;21016;-81
2021/05/19 11:01:09;;;;;;;3.15;2.52;;;;;;;14.93;94.89;98014.30;1601095;89;21001;-81
2021/05/19 11:03:39;;;;;;;4.42;2.55;;;;;;;14.89;95.85;98019.80;1618292;88;21111;-81
2021/05/19 11:06:10;;;;;;;2.95;2.60;;;;;;;14.92;96.79;98027.33;1618249;88;21047;-81
2021/05/19 11:08:38;;;;;;;6.08;2.98;;;;;;;14.93;97.22;98025.35;1601291;89;21041;-82
2021/05/19 11:11:27;;;;;;;5.90;2.85;;;;;;;14.95;98.22;98030.70;1618218;88;21021;-82
2021/05/19 11:14:19;;;;;;;3.95;2.33;;;;;;;15.06;99.11;98044.00;1618187;88;20916;-83
2021/05/19 11:16:59;;;;;;;3.10;1.55;;;;;;;15.13;99.44;98044.66;1589914;90;20981;-83
2021/05/19 11:19:33;;;;;;;1.42;0.90;;;;;;;15.11;98.83;98043.66;1600554;89;20998;-83
2021/05/19 11:22:06;;;;;;;1.17;0.60;;;;;;;15.02;98.00;98047.32;1618138;88;21139;-84
2021/05/19 11:24:58;;;;;;;4.45;0.70;;;;;;;14.84;96.98;98056.06;1619276;88;21015;-84
2021/05/19 11:27:32;;;;;;;3.17;0.70;;;;;;;14.66;97.80;98061.98;1601592;89;21073;-84
2021/05/19 11:30:03;;;;;;;1.52;0.80;;;;;;;14.52;98.15;98075.05;1618313;88;20944;-82
2021/05/19 11:32:33;;;;;;;0.82;0.82;;;;;;;14.39;98.17;98081.98;1618074;88;21055;-83
2021/05/19 11:35:16;;;;;;;2.05;1.15;;;;;;;14.28;98.60;98085.99;1601362;89;20989;-82
2021/05/19 11:38:03;;;;;;;2.80;1.22;;;;;;;14.18;98.91;98093.55;1617715;88;21055;-82
2021/05/19 11:40:40;;;;;;;2.22;1.25;;;;;;;14.09;99.88;98097.97;1617988;88;20976;-82
2021/05/19 11:43:06;;;;;;;2.00;0.78;;;;;;;14.03;100.00;98103.59;1601043;89;21052;-81
2021/05/19 11:45:33;;;;;;;1.27;1.00;;;;;;;13.96;100.00;98108.22;1613023;88;20924;-83